Time;durP1;ratioP1;P1;durP2;ratioP2;P2;SDS_P1;SDS_P2;PMS_P1;PMS_P2;Temp;Humidity;BMP_temperature;BMP_pressure;BME280_temperature;BME280_humidity;BME280_pressure;Samples;Min_cycle;Max_cycle;Signal;HPM_P1;HPM_P2
2023/09/13 00:02:12;;;;;;;12.35;8.80;;;;;;;;;;4971686;28;20035;-81
2023/09/13 00:04:37;;;;;;;13.15;8.68;;;;;;;;;;4978896;28;20050;-82
2023/09/13 00:07:03;;;;;;;14.02;8.63;;;;;;;;;;4979952;28;20057;-81
2023/09/13 00:09:28;;;;;;;13.50;8.18;;;;;;;;;;4974326;28;20136;-80
2023/09/13 00:11:54;;;;;;;13.43;8.55;;;;;;;;;;4977935;28;20038;-81
2023/09/13 00:14:19;;;;;;;14.00;8.10;;;;;;;;;;4980728;28;20033;-81
2023/09/13 00:16:44;;;;;;;15.15;8.23;;;;;;;;;;4979521;28;20062;-79
2023/09/13 00:19:10;;;;;;;13.55;8.32;;;;;;;;;;4979252;28;20035;-80
2023/09/13 00:21:40;;;;;;;12.32;8.65;;;;;;;;;;4980200;28;20026;-80
2023/09/13 00:24:06;;;;;;;16.48;9.00;;;;;;;;;;4979890;28;20026;-80
2023/09/13 00:26:31;;;;;;;13.40;9.00;;;;;;;;;;4979229;28;20035;-81
2023/09/13 00:28:57;;;;;;;13.02;8.85;;;;;;;;;;4980749;28;20030;-80
2023/09/13 00:31:23;;;;;;;16.15;9.10;;;;;;;;;;4979850;28;20030;-81
2023/09/13 00:33:48;;;;;;;13.20;7.80;;;;;;;;;;4980795;28;20034;-81
2023/09/13 00:36:14;;;;;;;13.48;8.40;;;;;;;;;;4980771;28;20065;-81
2023/09/13 00:38:39;;;;;;;15.10;8.48;;;;;;;;;;4979523;28;20112;-81
2023/09/13 00:41:04;;;;;;;14.20;8.32;;;;;;;;;;4977558;28;20042;-81
2023/09/13 00:43:30;;;;;;;12.88;8.50;;;;;;;;;;4969085;28;20050;-80
2023/09/13 00:45:56;;;;;;;13.75;8.95;;;;;;;;;;4981399;28;20330;-81
2023/09/13 00:48:23;;;;;;;10.43;7.70;;;;;;;;;;4980408;28;20026;-81
2023/09/13 00:50:49;;;;;;;12.77;8.35;;;;;;;;;;4980206;28;20023;-80
2023/09/13 00:53:14;;;;;;;12.80;7.72;;;;;;;;;;4981927;28;20531;-81
2023/09/13 00:55:40;;;;;;;12.13;8.07;;;;;;;;;;4984553;28;20088;-81
2023/09/13 00:58:06;;;;;;;12.38;8.18;;;;;;;;;;4991910;28;20053;-80
2023/09/13 01:00:35;;;;;;;14.30;8.40;;;;;;;;;;4983787;28;20230;-81
2023/09/13 01:03:02;;;;;;;14.95;8.40;;;;;;;;;;4989439;28;20026;-82
2023/09/13 01:05:27;;;;;;;11.98;7.88;;;;;;;;;;4984570;28;20098;-82
2023/09/13 01:07:53;;;;;;;14.95;8.63;;;;;;;;;;4984531;28;20089;-82
2023/09/13 01:10:19;;;;;;;17.77;8.63;;;;;;;;;;4983137;28;20343;-80
2023/09/13 01:12:45;;;;;;;14.95;9.15;;;;;;;;;;4973111;28;20093;-81
2023/09/13 01:15:10;;;;;;;14.32;8.20;;;;;;;;;;4981811;28;20350;-81
2023/09/13 01:18:08;;;;;;;14.70;8.15;;;;;;;;;;4984487;28;20410;-80
2023/09/13 01:20:45;;;;;;;12.57;7.53;;;;;;;;;;4981178;28;20034;-80
2023/09/13 01:23:40;;;;;;;12.45;8.05;;;;;;;;;;4979497;28;20146;-80
2023/09/13 01:26:24;;;;;;;15.52;8.52;;;;;;;;;;4982654;28;20043;-80
2023/09/13 01:28:51;;;;;;;13.65;8.70;;;;;;;;;;4983688;28;20037;-80
2023/09/13 01:31:17;;;;;;;18.33;9.00;;;;;;;;;;4983138;28;20030;-81
2023/09/13 01:33:44;;;;;;;14.95;8.30;;;;;;;;;;4980879;28;20059;-80
2023/09/13 01:36:10;;;;;;;12.88;8.10;;;;;;;;;;4985680;28;20071;-80
2023/09/13 01:38:36;;;;;;;13.15;8.10;;;;;;;;;;4974451;28;20496;-80
2023/09/13 01:41:08;;;;;;;12.52;7.40;;;;;;;;;;4975273;28;20134;-79
2023/09/13 01:43:35;;;;;;;10.88;7.60;;;;;;;;;;4970567;28;20053;-77
2023/09/13 01:46:01;;;;;;;10.98;7.53;;;;;;;;;;4976570;28;20086;-80
2023/09/13 01:48:28;;;;;;;14.10;8.50;;;;;;;;;;4976531;28;20030;-80
2023/09/13 01:50:55;;;;;;;14.10;8.30;;;;;;;;;;4976813;28;20022;-80
2023/09/13 01:53:20;;;;;;;13.25;8.43;;;;;;;;;;4979690;28;20042;-80
2023/09/13 01:55:45;;;;;;;13.82;8.32;;;;;;;;;;4978012;28;20034;-81
2023/09/13 01:58:11;;;;;;;14.93;8.23;;;;;;;;;;4973320;28;20093;-81
2023/09/13 02:00:36;;;;;;;12.98;8.57;;;;;;;;;;4976015;28;20022;-81
2023/09/13 02:03:02;;;;;;;15.30;8.80;;;;;;;;;;4975249;28;21445;-80
2023/09/13 02:05:30;;;;;;;14.32;8.10;;;;;;;;;;4983391;28;20236;-80
2023/09/13 02:07:55;;;;;;;16.88;9.13;;;;;;;;;;4982801;28;20369;-80
2023/09/13 02:10:20;;;;;;;15.68;9.60;;;;;;;;;;4983427;28;20050;-81
2023/09/13 02:12:46;;;;;;;16.83;9.80;;;;;;;;;;4982425;28;20058;-81
2023/09/13 02:15:12;;;;;;;17.70;10.10;;;;;;;;;;4978724;28;20034;-79
2023/09/13 02:17:37;;;;;;;17.83;10.35;;;;;;;;;;4980737;28;20022;-80
2023/09/13 02:20:04;;;;;;;16.35;10.57;;;;;;;;;;4984438;28;20057;-80
2023/09/13 02:22:29;;;;;;;14.75;10.15;;;;;;;;;;4980056;28;20047;-81
2023/09/13 02:24:55;;;;;;;15.90;10.15;;;;;;;;;;4982594;28;20035;-80
2023/09/13 02:27:20;;;;;;;17.08;10.73;;;;;;;;;;4982906;28;20039;-80
2023/09/13 02:29:45;;;;;;;16.73;11.02;;;;;;;;;;4982994;28;20031;-80
2023/09/13 02:32:11;;;;;;;14.63;10.07;;;;;;;;;;4972161;28;20069;-80
2023/09/13 02:34:36;;;;;;;15.38;10.18;;;;;;;;;;4973494;28;20070;-80
2023/09/13 02:37:01;;;;;;;14.82;10.07;;;;;;;;;;4970206;28;20031;-80
2023/09/13 02:39:38;;;;;;;16.48;10.50;;;;;;;;;;4969806;28;20365;-80
2023/09/13 02:42:04;;;;;;;14.70;9.40;;;;;;;;;;4963808;28;20097;-79
2023/09/13 02:44:31;;;;;;;16.40;9.48;;;;;;;;;;4971618;28;20039;-80
2023/09/13 02:46:57;;;;;;;14.82;10.20;;;;;;;;;;4970823;28;20054;-78
2023/09/13 02:49:23;;;;;;;13.68;9.20;;;;;;;;;;4971651;28;20035;-79
2023/09/13 02:51:49;;;;;;;14.32;9.23;;;;;;;;;;4977334;28;20487;-80
2023/09/13 02:54:14;;;;;;;16.15;9.68;;;;;;;;;;4973811;28;20038;-80
2023/09/13 02:56:40;;;;;;;16.35;9.77;;;;;;;;;;4987960;28;20026;-79
2023/09/13 02:59:05;;;;;;;15.02;9.63;;;;;;;;;;4983131;28;20046;-79
2023/09/13 03:01:30;;;;;;;14.32;9.70;;;;;;;;;;4980867;28;20227;-82
2023/09/13 03:03:56;;;;;;;16.88;10.07;;;;;;;;;;4981648;28;20050;-79
2023/09/13 03:06:21;;;;;;;17.77;10.50;;;;;;;;;;4971181;28;20039;-79
2023/09/13 03:08:47;;;;;;;18.90;10.75;;;;;;;;;;4969926;28;20031;-82
2023/09/13 03:11:14;;;;;;;20.30;11.68;;;;;;;;;;4973709;28;20045;-81
2023/09/13 03:13:40;;;;;;;21.48;12.25;;;;;;;;;;4971201;28;20078;-81
2023/09/13 03:16:12;;;;;;;19.08;11.65;;;;;;;;;;4971186;28;20034;-83
2023/09/13 03:18:39;;;;;;;21.55;12.52;;;;;;;;;;4966919;28;20058;-81
2023/09/13 03:21:08;;;;;;;20.75;11.52;;;;;;;;;;4966405;28;20070;-81
2023/09/13 03:23:36;;;;;;;21.60;12.38;;;;;;;;;;4967837;28;20483;-82
2023/09/13 03:26:01;;;;;;;22.15;12.10;;;;;;;;;;4968737;28;20035;-83
2023/09/13 03:28:27;;;;;;;20.63;12.10;;;;;;;;;;4968759;28;20033;-83
2023/09/13 03:30:52;;;;;;;24.17;12.02;;;;;;;;;;4978297;28;20069;-84
2023/09/13 03:33:17;;;;;;;21.20;12.05;;;;;;;;;;4980504;28;20315;-81
2023/09/13 03:35:43;;;;;;;25.85;13.38;;;;;;;;;;4983426;28;20196;-82
2023/09/13 03:38:08;;;;;;;24.35;13.02;;;;;;;;;;4980925;28;20042;-82
2023/09/13 03:40:33;;;;;;;23.02;12.70;;;;;;;;;;4980347;28;20023;-81
2023/09/13 03:42:59;;;;;;;21.58;12.73;;;;;;;;;;4979754;28;20054;-81
2023/09/13 03:45:24;;;;;;;21.73;12.27;;;;;;;;;;4976039;28;20061;-80
2023/09/13 03:47:49;;;;;;;21.00;11.95;;;;;;;;;;4976366;28;20217;-80
2023/09/13 03:50:15;;;;;;;19.77;12.13;;;;;;;;;;4982665;28;20022;-81
2023/09/13 03:52:40;;;;;;;21.80;11.68;;;;;;;;;;4983448;28;20026;-80
2023/09/13 03:55:06;;;;;;;23.15;12.20;;;;;;;;;;4976708;28;20027;-81
2023/09/13 03:57:31;;;;;;;21.08;12.25;;;;;;;;;;4979176;28;20042;-81
2023/09/13 03:59:57;;;;;;;21.35;11.70;;;;;;;;;;4979656;28;20022;-81
2023/09/13 04:02:23;;;;;;;20.52;12.32;;;;;;;;;;4980277;28;20061;-81
2023/09/13 04:04:48;;;;;;;19.17;11.07;;;;;;;;;;4984720;28;20320;-80
2023/09/13 04:07:14;;;;;;;19.75;11.45;;;;;;;;;;4980694;28;20033;-81
2023/09/13 04:09:39;;;;;;;18.73;11.50;;;;;;;;;;4977146;28;20084;-82
2023/09/13 04:12:05;;;;;;;18.98;11.70;;;;;;;;;;4981170;28;20303;-81
2023/09/13 04:14:30;;;;;;;19.63;11.00;;;;;;;;;;4980812;28;20030;-81
2023/09/13 04:16:56;;;;;;;18.48;11.18;;;;;;;;;;4976507;28;20054;-81
2023/09/13 04:19:21;;;;;;;15.82;10.68;;;;;;;;;;4968164;28;20025;-81
2023/09/13 04:21:46;;;;;;;18.75;11.32;;;;;;;;;;4981763;28;20022;-81
2023/09/13 04:24:12;;;;;;;20.85;11.80;;;;;;;;;;4977871;28;20110;-82
2023/09/13 04:26:37;;;;;;;20.05;11.15;;;;;;;;;;4987424;28;20045;-81
2023/09/13 04:29:05;;;;;;;18.90;10.80;;;;;;;;;;4983567;28;20366;-80
2023/09/13 04:31:30;;;;;;;20.92;11.43;;;;;;;;;;4982589;28;20031;-81
2023/09/13 04:33:56;;;;;;;18.83;11.43;;;;;;;;;;4981447;28;20465;-82
2023/09/13 04:36:21;;;;;;;17.83;10.55;;;;;;;;;;4981805;28;20239;-82
2023/09/13 04:38:47;;;;;;;18.10;11.00;;;;;;;;;;4980933;28;20023;-82
2023/09/13 04:41:14;;;;;;;15.63;10.50;;;;;;;;;;4981708;28;20034;-81
2023/09/13 04:43:39;;;;;;;18.33;11.38;;;;;;;;;;4989376;28;20050;-81
2023/09/13 04:46:04;;;;;;;17.85;11.18;;;;;;;;;;4981668;28;20327;-82
2023/09/13 04:48:30;;;;;;;19.92;11.27;;;;;;;;;;4975230;28;20073;-82
2023/09/13 04:50:55;;;;;;;18.02;11.05;;;;;;;;;;4980753;28;20247;-82
2023/09/13 04:53:20;;;;;;;19.92;11.32;;;;;;;;;;4979621;28;20031;-82
2023/09/13 04:55:46;;;;;;;17.25;10.88;;;;;;;;;;4981267;28;20069;-81
2023/09/13 04:58:11;;;;;;;16.50;11.00;;;;;;;;;;4979748;28;20026;-80
2023/09/13 05:00:36;;;;;;;19.00;11.65;;;;;;;;;;4981024;28;20062;-81
2023/09/13 05:03:02;;;;;;;17.77;10.60;;;;;;;;;;4980304;28;20465;-81
2023/09/13 05:05:27;;;;;;;21.55;11.88;;;;;;;;;;4981351;28;20254;-81
2023/09/13 05:07:54;;;;;;;17.73;11.05;;;;;;;;;;4980590;28;20023;-81
2023/09/13 05:10:20;;;;;;;18.88;10.57;;;;;;;;;;4981149;28;20089;-81
2023/09/13 05:12:48;;;;;;;18.88;10.90;;;;;;;;;;4980398;28;20035;-80
2023/09/13 05:15:13;;;;;;;17.70;10.88;;;;;;;;;;4979935;28;20667;-80
2023/09/13 05:17:39;;;;;;;16.90;10.48;;;;;;;;;;4964172;28;20023;-81
2023/09/13 05:20:05;;;;;;;16.63;10.18;;;;;;;;;;4963788;28;20215;-80
2023/09/13 05:22:30;;;;;;;18.08;10.20;;;;;;;;;;4981134;28;20098;-80
2023/09/13 05:24:55;;;;;;;18.63;10.27;;;;;;;;;;4980286;28;20054;-80
2023/09/13 05:27:21;;;;;;;16.55;9.25;;;;;;;;;;4977634;28;20034;-79
2023/09/13 05:29:47;;;;;;;14.30;9.00;;;;;;;;;;4977770;28;20219;-79
2023/09/13 05:32:13;;;;;;;19.08;9.68;;;;;;;;;;4976975;28;20035;-79
2023/09/13 05:34:38;;;;;;;16.25;9.48;;;;;;;;;;4976926;28;20200;-77
2023/09/13 05:37:04;;;;;;;16.42;9.45;;;;;;;;;;4979085;28;20042;-81
2023/09/13 05:39:29;;;;;;;15.00;8.88;;;;;;;;;;4981475;28;20069;-79
2023/09/13 05:41:55;;;;;;;14.73;8.98;;;;;;;;;;4980204;28;20022;-81
2023/09/13 05:44:23;;;;;;;14.10;8.85;;;;;;;;;;4982775;28;20227;-74
2023/09/13 05:46:48;;;;;;;13.93;8.27;;;;;;;;;;4979312;28;20023;-77
2023/09/13 05:49:13;;;;;;;14.20;8.45;;;;;;;;;;4975634;28;20370;-77
2023/09/13 05:51:39;;;;;;;13.10;8.25;;;;;;;;;;4987541;28;20262;-77
2023/09/13 05:54:04;;;;;;;14.00;8.60;;;;;;;;;;4986423;28;20070;-78
2023/09/13 05:56:29;;;;;;;15.25;8.25;;;;;;;;;;4986275;28;20246;-78
2023/09/13 05:58:55;;;;;;;12.63;8.07;;;;;;;;;;4982922;28;20018;-77
2023/09/13 06:01:22;;;;;;;12.32;8.13;;;;;;;;;;4983331;28;20037;-78
2023/09/13 06:03:47;;;;;;;14.75;8.40;;;;;;;;;;4983899;28;20038;-78
2023/09/13 06:06:13;;;;;;;14.13;8.38;;;;;;;;;;4988847;28;20030;-78
2023/09/13 06:08:38;;;;;;;13.73;7.82;;;;;;;;;;4983598;28;20072;-77
2023/09/13 06:11:03;;;;;;;13.38;8.43;;;;;;;;;;4983447;28;20030;-76
2023/09/13 06:13:29;;;;;;;17.27;8.75;;;;;;;;;;4978664;28;20089;-77
2023/09/13 06:15:54;;;;;;;14.77;8.63;;;;;;;;;;4980358;28;20022;-77
2023/09/13 06:18:19;;;;;;;15.90;9.02;;;;;;;;;;4976644;28;20042;-77
2023/09/13 06:20:45;;;;;;;17.30;9.65;;;;;;;;;;4975690;28;20027;-77
2023/09/13 06:23:37;;;;;;;16.42;9.60;;;;;;;;;;4970722;28;20042;-77
2023/09/13 06:26:02;;;;;;;18.90;10.43;;;;;;;;;;4965479;28;20563;-77
2023/09/13 06:28:28;;;;;;;18.55;10.00;;;;;;;;;;4976396;28;20034;-77
2023/09/13 06:30:54;;;;;;;18.83;10.43;;;;;;;;;;4981374;28;20027;-77
2023/09/13 06:33:19;;;;;;;18.25;10.02;;;;;;;;;;4980210;28;20327;-77
2023/09/13 06:35:44;;;;;;;19.35;10.25;;;;;;;;;;4980044;28;20099;-77
2023/09/13 06:38:11;;;;;;;19.85;10.32;;;;;;;;;;4981488;28;20077;-77
2023/09/13 06:40:37;;;;;;;17.02;10.13;;;;;;;;;;4980765;28;20015;-78
2023/09/13 06:43:03;;;;;;;18.05;9.55;;;;;;;;;;4982714;28;20296;-76
2023/09/13 06:45:28;;;;;;;20.23;10.00;;;;;;;;;;4979740;28;20054;-76
2023/09/13 06:47:54;;;;;;;16.55;9.85;;;;;;;;;;4977250;28;20046;-77
2023/09/13 06:50:19;;;;;;;17.77;9.90;;;;;;;;;;4978642;28;20022;-76
2023/09/13 06:52:44;;;;;;;22.75;10.20;;;;;;;;;;4979256;28;20034;-76
2023/09/13 06:55:10;;;;;;;24.30;10.25;;;;;;;;;;4980573;28;20037;-76
2023/09/13 06:57:35;;;;;;;18.52;9.18;;;;;;;;;;4981385;28;20014;-77
2023/09/13 07:00:00;;;;;;;19.60;10.20;;;;;;;;;;4982368;28;20248;-77
2023/09/13 07:02:26;;;;;;;17.42;10.13;;;;;;;;;;4975354;28;20204;-76
2023/09/13 07:04:51;;;;;;;16.92;9.82;;;;;;;;;;4980303;28;20031;-76
2023/09/13 07:07:17;;;;;;;15.45;9.73;;;;;;;;;;4976793;28;20023;-77
2023/09/13 07:09:45;;;;;;;18.70;9.93;;;;;;;;;;4967392;28;20031;-77
2023/09/13 07:12:10;;;;;;;16.92;10.15;;;;;;;;;;4971538;28;20480;-77
2023/09/13 07:14:36;;;;;;;19.88;10.02;;;;;;;;;;4971546;28;20109;-77
2023/09/13 07:17:01;;;;;;;14.48;10.10;;;;;;;;;;4969895;28;20105;-77
2023/09/13 07:19:26;;;;;;;20.42;11.00;;;;;;;;;;4957833;28;20106;-76
2023/09/13 07:21:52;;;;;;;17.75;10.30;;;;;;;;;;4971728;28;20037;-77
2023/09/13 07:24:17;;;;;;;22.75;10.70;;;;;;;;;;4970761;28;20436;-77
2023/09/13 07:26:43;;;;;;;20.13;9.80;;;;;;;;;;4970501;28;20029;-77
2023/09/13 07:29:08;;;;;;;15.80;9.88;;;;;;;;;;4969926;28;20558;-77
2023/09/13 07:31:34;;;;;;;16.95;9.52;;;;;;;;;;4971514;28;20043;-76
2023/09/13 07:34:02;;;;;;;18.05;9.32;;;;;;;;;;4969249;28;20538;-77
2023/09/13 07:36:28;;;;;;;17.40;9.38;;;;;;;;;;4969948;28;20027;-76
2023/09/13 07:38:54;;;;;;;18.35;9.80;;;;;;;;;;4970856;28;20026;-77
2023/09/13 07:41:20;;;;;;;15.45;9.07;;;;;;;;;;4971801;28;20034;-77
2023/09/13 07:43:45;;;;;;;14.27;9.30;;;;;;;;;;4970414;28;20074;-77
2023/09/13 07:46:10;;;;;;;17.00;8.60;;;;;;;;;;4970964;28;20038;-77
2023/09/13 07:48:36;;;;;;;13.90;8.40;;;;;;;;;;4964639;28;20030;-75
2023/09/13 07:51:02;;;;;;;17.38;8.45;;;;;;;;;;4959690;28;20030;-76
2023/09/13 07:53:28;;;;;;;19.52;7.78;;;;;;;;;;4967641;28;20070;-76
2023/09/13 07:55:55;;;;;;;15.95;8.20;;;;;;;;;;4963073;28;20043;-77
2023/09/13 07:58:21;;;;;;;17.58;8.18;;;;;;;;;;4965496;28;20034;-77
2023/09/13 08:00:46;;;;;;;13.45;8.13;;;;;;;;;;4970854;28;20073;-77
2023/09/13 08:03:11;;;;;;;13.23;8.48;;;;;;;;;;4970768;28;20031;-77
2023/09/13 08:05:37;;;;;;;15.00;8.27;;;;;;;;;;4970659;28;20110;-77
2023/09/13 08:08:03;;;;;;;16.13;8.13;;;;;;;;;;4970312;28;20431;-76
2023/09/13 08:10:28;;;;;;;17.00;7.55;;;;;;;;;;4970725;28;20114;-76
2023/09/13 08:12:54;;;;;;;14.25;7.63;;;;;;;;;;4970664;28;20109;-77
2023/09/13 08:15:20;;;;;;;15.07;7.18;;;;;;;;;;4970855;28;20058;-76
2023/09/13 08:17:45;;;;;;;12.82;7.40;;;;;;;;;;4956986;28;20358;-77
2023/09/13 08:20:11;;;;;;;13.88;7.97;;;;;;;;;;4970635;28;20026;-77
2023/09/13 08:22:37;;;;;;;21.55;8.38;;;;;;;;;;4959682;28;20086;-77
2023/09/13 08:25:03;;;;;;;14.88;7.55;;;;;;;;;;4969772;28;20031;-77
2023/09/13 08:27:29;;;;;;;12.27;7.30;;;;;;;;;;4961267;28;20031;-77
2023/09/13 08:29:55;;;;;;;12.98;7.28;;;;;;;;;;4970537;28;20543;-77
2023/09/13 08:32:21;;;;;;;11.00;7.15;;;;;;;;;;4968939;28;20043;-77
2023/09/13 08:34:46;;;;;;;12.90;6.65;;;;;;;;;;4957377;28;20031;-77
2023/09/13 08:37:12;;;;;;;10.68;7.25;;;;;;;;;;4963358;28;20034;-77
2023/09/13 08:39:38;;;;;;;12.60;7.25;;;;;;;;;;4971071;28;20030;-77
2023/09/13 08:42:03;;;;;;;11.48;6.88;;;;;;;;;;4974388;28;20038;-77
2023/09/13 08:44:30;;;;;;;15.13;7.82;;;;;;;;;;4978441;28;20027;-76
2023/09/13 08:46:57;;;;;;;13.40;7.65;;;;;;;;;;4968966;28;20035;-77
2023/09/13 08:49:23;;;;;;;11.95;7.43;;;;;;;;;;4980056;28;20102;-76
2023/09/13 08:51:51;;;;;;;11.70;7.60;;;;;;;;;;4974916;28;20030;-77
2023/09/13 08:54:18;;;;;;;13.07;7.90;;;;;;;;;;4971553;28;20368;-76
2023/09/13 08:56:43;;;;;;;13.52;7.97;;;;;;;;;;4970011;28;20278;-77
2023/09/13 08:59:09;;;;;;;14.57;7.80;;;;;;;;;;4978184;28;20042;-75
2023/09/13 09:01:39;;;;;;;12.05;7.38;;;;;;;;;;4978908;28;20082;-75
2023/09/13 09:04:04;;;;;;;12.23;7.20;;;;;;;;;;4975679;28;20072;-78
2023/09/13 09:06:31;;;;;;;12.95;7.63;;;;;;;;;;4973870;28;20099;-77
2023/09/13 09:08:56;;;;;;;13.48;7.78;;;;;;;;;;4973100;28;20067;-77
2023/09/13 09:11:24;;;;;;;14.32;8.05;;;;;;;;;;4979251;28;20023;-77
2023/09/13 09:13:51;;;;;;;14.88;8.30;;;;;;;;;;4972556;28;20078;-77
2023/09/13 09:16:18;;;;;;;13.77;8.35;;;;;;;;;;4981546;28;20034;-77
2023/09/13 09:18:45;;;;;;;13.55;8.30;;;;;;;;;;4981529;28;20038;-77
2023/09/13 09:21:11;;;;;;;15.45;8.38;;;;;;;;;;4980094;28;20023;-77
2023/09/13 09:23:38;;;;;;;14.15;7.25;;;;;;;;;;4979201;28;20041;-77
2023/09/13 09:26:04;;;;;;;11.18;6.90;;;;;;;;;;4971590;28;20035;-78
2023/09/13 09:28:31;;;;;;;13.98;7.78;;;;;;;;;;4981250;28;20046;-77
2023/09/13 09:31:00;;;;;;;11.27;7.10;;;;;;;;;;4983176;28;20026;-77
2023/09/13 09:33:28;;;;;;;13.00;7.25;;;;;;;;;;4979004;28;20054;-78
2023/09/13 09:35:54;;;;;;;11.90;6.78;;;;;;;;;;4981151;28;20409;-77
2023/09/13 09:38:25;;;;;;;13.00;7.75;;;;;;;;;;4984809;28;20027;-77
2023/09/13 09:40:54;;;;;;;12.88;7.95;;;;;;;;;;4980733;28;20076;-76
2023/09/13 09:43:21;;;;;;;10.40;7.07;;;;;;;;;;4982009;28;20051;-77
2023/09/13 09:45:47;;;;;;;14.18;7.70;;;;;;;;;;4983318;28;20034;-78
2023/09/13 09:48:13;;;;;;;12.75;7.35;;;;;;;;;;4983521;28;20139;-77
2023/09/13 09:50:43;;;;;;;12.43;7.68;;;;;;;;;;4976808;28;20039;-77
2023/09/13 09:53:09;;;;;;;13.88;7.88;;;;;;;;;;4981784;28;20345;-77
2023/09/13 09:55:36;;;;;;;13.15;8.02;;;;;;;;;;4996346;28;20034;-77
2023/09/13 09:58:02;;;;;;;16.02;8.30;;;;;;;;;;4980179;28;20042;-76
2023/09/13 10:00:27;;;;;;;14.10;8.98;;;;;;;;;;4975031;28;20030;-76
2023/09/13 10:02:53;;;;;;;14.52;8.65;;;;;;;;;;4972005;28;20034;-76
2023/09/13 10:05:20;;;;;;;13.10;8.00;;;;;;;;;;4978634;28;20226;-76
2023/09/13 10:07:55;;;;;;;15.68;8.52;;;;;;;;;;4975335;28;20027;-76
2023/09/13 10:10:28;;;;;;;15.05;7.97;;;;;;;;;;4973228;28;20030;-77
2023/09/13 10:12:54;;;;;;;12.55;8.13;;;;;;;;;;4973127;28;20460;-76
2023/09/13 10:15:20;;;;;;;16.48;8.32;;;;;;;;;;4977593;28;20061;-77
2023/09/13 10:17:48;;;;;;;13.32;8.13;;;;;;;;;;4978329;28;20031;-77
2023/09/13 10:20:16;;;;;;;14.00;8.30;;;;;;;;;;4977493;28;20080;-77
2023/09/13 10:22:42;;;;;;;15.07;8.93;;;;;;;;;;4977548;28;20113;-77
2023/09/13 10:25:11;;;;;;;18.98;8.73;;;;;;;;;;4980991;28;20042;-77
2023/09/13 10:27:38;;;;;;;17.08;8.45;;;;;;;;;;4980944;28;20027;-76
2023/09/13 10:30:04;;;;;;;15.70;8.60;;;;;;;;;;4980546;28;20042;-76
2023/09/13 10:32:42;;;;;;;15.15;8.32;;;;;;;;;;4975227;28;20027;-76
2023/09/13 10:35:08;;;;;;;14.88;8.30;;;;;;;;;;4973899;28;20046;-76
2023/09/13 10:38:03;;;;;;;14.25;8.18;;;;;;;;;;4973687;28;20034;-76
2023/09/13 10:40:38;;;;;;;15.93;8.98;;;;;;;;;;4980382;28;20034;-76
2023/09/13 10:43:04;;;;;;;14.02;8.13;;;;;;;;;;4982340;28;20046;-77
2023/09/13 10:45:30;;;;;;;16.15;8.70;;;;;;;;;;4979409;28;20038;-77
2023/09/13 10:47:58;;;;;;;14.60;8.68;;;;;;;;;;4981080;28;20093;-76
2023/09/13 10:50:25;;;;;;;16.17;8.73;;;;;;;;;;4981664;28;20105;-75
2023/09/13 10:52:50;;;;;;;14.13;8.55;;;;;;;;;;4981750;28;20018;-75
2023/09/13 10:55:16;;;;;;;14.52;8.95;;;;;;;;;;4982948;28;20026;-76
2023/09/13 10:57:43;;;;;;;14.68;8.48;;;;;;;;;;4982864;28;20062;-75
2023/09/13 11:00:12;;;;;;;12.48;8.35;;;;;;;;;;4982733;28;20030;-74
2023/09/13 11:02:40;;;;;;;14.98;8.82;;;;;;;;;;4982335;28;20022;-74
2023/09/13 11:05:06;;;;;;;20.42;8.82;;;;;;;;;;4982560;28;20263;-75
2023/09/13 11:07:32;;;;;;;15.45;8.85;;;;;;;;;;4982294;28;20054;-74
2023/09/13 11:10:11;;;;;;;22.70;9.45;;;;;;;;;;4982648;28;20089;-75
2023/09/13 11:12:37;;;;;;;17.63;9.68;;;;;;;;;;4982598;28;20054;-75
2023/09/13 11:15:13;;;;;;;17.40;10.95;;;;;;;;;;4982437;28;20022;-75
2023/09/13 11:17:40;;;;;;;14.88;9.80;;;;;;;;;;4982635;28;20027;-74
2023/09/13 11:20:38;;;;;;;19.20;9.90;;;;;;;;;;4982212;28;20040;-74
2023/09/13 11:23:10;;;;;;;14.35;8.95;;;;;;;;;;4976111;28;20029;-74
2023/09/13 11:25:38;;;;;;;15.18;9.20;;;;;;;;;;4974112;28;20054;-75
2023/09/13 11:28:27;;;;;;;12.90;8.35;;;;;;;;;;4981441;28;20019;-75
2023/09/13 11:30:58;;;;;;;15.70;8.98;;;;;;;;;;4970521;28;20109;-75
2023/09/13 11:33:23;;;;;;;14.07;8.38;;;;;;;;;;4979937;28;20222;-74
2023/09/13 11:35:49;;;;;;;16.05;9.05;;;;;;;;;;4981445;28;20030;-74
2023/09/13 11:38:17;;;;;;;14.23;9.20;;;;;;;;;;4981901;28;20035;-75
2023/09/13 11:40:49;;;;;;;15.85;8.88;;;;;;;;;;4980666;28;20033;-74
2023/09/13 11:43:26;;;;;;;12.27;8.95;;;;;;;;;;4969857;28;20097;-73
2023/09/13 11:45:55;;;;;;;13.98;8.63;;;;;;;;;;4974728;28;20030;-74
2023/09/13 11:48:26;;;;;;;15.38;10.07;;;;;;;;;;4980411;28;20517;-76
2023/09/13 11:50:52;;;;;;;13.40;9.00;;;;;;;;;;4977011;28;20022;-74
2023/09/13 11:53:24;;;;;;;14.88;9.07;;;;;;;;;;4969695;28;20023;-77
2023/09/13 11:55:53;;;;;;;15.30;8.55;;;;;;;;;;4978461;28;20334;-75
2023/09/13 11:58:29;;;;;;;20.75;8.70;;;;;;;;;;4979313;28;20061;-74
2023/09/13 12:00:55;;;;;;;15.25;9.07;;;;;;;;;;4973809;28;20047;-77
2023/09/13 12:03:21;;;;;;;15.98;9.15;;;;;;;;;;4973876;28;20692;-74
2023/09/13 12:05:47;;;;;;;14.10;8.55;;;;;;;;;;4970278;28;20027;-73
2023/09/13 12:08:24;;;;;;;15.18;8.50;;;;;;;;;;4969275;28;20555;-74
2023/09/13 12:10:52;;;;;;;15.48;8.95;;;;;;;;;;4970773;28;20019;-76
2023/09/13 12:13:18;;;;;;;13.93;9.15;;;;;;;;;;4970034;28;20528;-76
2023/09/13 12:16:00;;;;;;;19.10;9.98;;;;;;;;;;4971450;28;20019;-75
2023/09/13 12:18:26;;;;;;;15.13;9.20;;;;;;;;;;4971833;28;20027;-76
2023/09/13 12:20:55;;;;;;;13.85;8.98;;;;;;;;;;4963316;28;20050;-74
2023/09/13 12:23:20;;;;;;;17.92;8.98;;;;;;;;;;4958260;28;20472;-74
2023/09/13 12:25:46;;;;;;;17.70;9.30;;;;;;;;;;4968841;28;20042;-74
2023/09/13 12:28:23;;;;;;;17.58;9.43;;;;;;;;;;4969594;28;20023;-75
2023/09/13 12:30:48;;;;;;;13.93;9.05;;;;;;;;;;4970426;28;20038;-76
2023/09/13 12:33:14;;;;;;;14.15;8.73;;;;;;;;;;4969797;28;20435;-76
2023/09/13 12:35:41;;;;;;;14.02;8.38;;;;;;;;;;4970812;28;20027;-75
2023/09/13 12:38:06;;;;;;;13.50;8.07;;;;;;;;;;4969660;28;20041;-76
2023/09/13 12:40:32;;;;;;;13.07;8.18;;;;;;;;;;4972347;28;20026;-76
2023/09/13 12:42:58;;;;;;;14.00;7.50;;;;;;;;;;4980399;28;20232;-76
2023/09/13 12:45:27;;;;;;;13.65;7.57;;;;;;;;;;4961310;28;20077;-76
2023/09/13 12:47:54;;;;;;;12.30;7.78;;;;;;;;;;4959982;28;20038;-76
2023/09/13 12:50:20;;;;;;;14.82;7.85;;;;;;;;;;4974060;28;20026;-76
2023/09/13 12:52:45;;;;;;;16.20;7.53;;;;;;;;;;4970858;28;20034;-75
2023/09/13 12:55:11;;;;;;;12.52;7.65;;;;;;;;;;4982391;28;20082;-75
2023/09/13 12:57:36;;;;;;;11.75;7.13;;;;;;;;;;4979162;28;20054;-75
2023/09/13 13:00:02;;;;;;;11.27;7.00;;;;;;;;;;4983576;28;20435;-75
2023/09/13 13:02:27;;;;;;;11.57;7.20;;;;;;;;;;4980008;28;20035;-75
2023/09/13 13:04:53;;;;;;;12.00;7.07;;;;;;;;;;4983385;28;20034;-75
2023/09/13 13:07:21;;;;;;;10.98;6.72;;;;;;;;;;4983832;28;20090;-75
2023/09/13 13:10:00;;;;;;;11.70;7.00;;;;;;;;;;4984445;28;20026;-75
2023/09/13 13:12:27;;;;;;;13.95;6.95;;;;;;;;;;4984244;28;20065;-75
2023/09/13 13:14:52;;;;;;;12.50;6.40;;;;;;;;;;4983014;28;20491;-76
2023/09/13 13:17:18;;;;;;;9.00;6.25;;;;;;;;;;4984085;28;20038;-76
2023/09/13 13:19:44;;;;;;;13.77;6.43;;;;;;;;;;4984415;28;20022;-76
2023/09/13 13:22:11;;;;;;;9.27;5.88;;;;;;;;;;4970420;28;20227;-75
2023/09/13 13:24:40;;;;;;;11.65;6.25;;;;;;;;;;4980885;28;20037;-76
2023/09/13 13:27:05;;;;;;;10.90;6.20;;;;;;;;;;4984122;28;20026;-76
2023/09/13 13:29:33;;;;;;;9.15;6.13;;;;;;;;;;4982542;28;20038;-77
2023/09/13 13:31:58;;;;;;;8.85;5.70;;;;;;;;;;4983360;28;20034;-76
2023/09/13 13:34:24;;;;;;;9.93;6.32;;;;;;;;;;4983193;28;20072;-75
2023/09/13 13:36:49;;;;;;;10.43;6.00;;;;;;;;;;4984352;28;20154;-76
2023/09/13 13:39:15;;;;;;;9.48;5.68;;;;;;;;;;4982921;28;20030;-76
2023/09/13 13:41:44;;;;;;;9.00;5.47;;;;;;;;;;4971285;28;20090;-77
2023/09/13 13:44:15;;;;;;;9.65;5.70;;;;;;;;;;4973758;28;20039;-77
2023/09/13 13:46:41;;;;;;;8.30;4.90;;;;;;;;;;4968857;28;20315;-76
2023/09/13 13:49:06;;;;;;;7.50;4.63;;;;;;;;;;4977776;28;20031;-77
2023/09/13 13:51:32;;;;;;;7.60;4.50;;;;;;;;;;4971664;28;20033;-77
2023/09/13 13:53:57;;;;;;;8.70;4.75;;;;;;;;;;4974518;28;20141;-77
2023/09/13 13:56:24;;;;;;;8.20;4.30;;;;;;;;;;4979322;28;20043;-77
2023/09/13 13:58:50;;;;;;;7.40;4.40;;;;;;;;;;4977963;28;20026;-77
2023/09/13 14:01:16;;;;;;;7.15;4.32;;;;;;;;;;4979159;28;20388;-77
2023/09/13 14:03:42;;;;;;;7.60;4.53;;;;;;;;;;4971118;28;20030;-77
2023/09/13 14:06:07;;;;;;;9.52;4.65;;;;;;;;;;4985109;28;20226;-77
2023/09/13 14:08:32;;;;;;;7.90;3.88;;;;;;;;;;4980572;28;20041;-77
2023/09/13 14:11:00;;;;;;;9.10;4.63;;;;;;;;;;4982248;28;20034;-77
2023/09/13 14:13:27;;;;;;;7.55;4.38;;;;;;;;;;4975555;28;20355;-76
2023/09/13 14:15:53;;;;;;;6.97;4.10;;;;;;;;;;4981341;28;20019;-76
2023/09/13 14:18:18;;;;;;;8.43;4.30;;;;;;;;;;4980843;28;21272;-74
2023/09/13 14:20:45;;;;;;;6.95;4.20;;;;;;;;;;4976395;28;20054;-74
2023/09/13 14:23:13;;;;;;;9.35;4.47;;;;;;;;;;4976685;28;20052;-74
2023/09/13 14:25:40;;;;;;;9.18;4.55;;;;;;;;;;4972536;28;20122;-74
2023/09/13 14:28:05;;;;;;;8.48;4.65;;;;;;;;;;4978807;28;20224;-74